createdAt,value
2019-02-20T00:00:55.632Z,15.73
2019-02-20T00:03:23.511Z,14.50
2019-02-20T00:05:51.491Z,14.93
2019-02-20T00:08:19.374Z,14.63
2019-02-20T00:10:47.260Z,13.90
2019-02-20T00:13:15.459Z,14.53
2019-02-20T00:15:43.669Z,14.10
2019-02-20T00:18:11.630Z,14.90
2019-02-20T00:20:39.522Z,15.90
2019-02-20T00:23:07.502Z,15.00
2019-02-20T00:25:35.417Z,15.50
2019-02-20T00:28:03.481Z,14.30
2019-02-20T00:30:31.475Z,15.67
2019-02-20T00:32:59.514Z,15.97
2019-02-20T00:35:27.503Z,15.97
2019-02-20T00:37:55.583Z,15.80
2019-02-20T00:40:23.557Z,15.00
2019-02-20T00:42:51.587Z,14.80
2019-02-20T00:45:41.811Z,15.70
2019-02-20T00:48:38.037Z,16.37
2019-02-20T00:51:23.936Z,14.30
2019-02-20T00:53:55.053Z,13.60
2019-02-20T00:56:23.022Z,15.40
2019-02-20T00:58:50.875Z,15.97
2019-02-20T01:01:20.352Z,14.87
2019-02-20T01:03:48.388Z,14.30
2019-02-20T01:06:16.341Z,14.93
2019-02-20T01:08:44.292Z,14.10
2019-02-20T01:11:12.597Z,14.10
2019-02-20T01:13:40.553Z,14.20
2019-02-20T01:16:08.618Z,14.80
2019-02-20T01:18:36.483Z,15.67
2019-02-20T01:21:04.650Z,14.57
2019-02-20T01:23:32.623Z,14.30
2019-02-20T01:26:00.679Z,13.57
2019-02-20T01:28:28.600Z,15.23
2019-02-20T01:30:56.597Z,14.50
2019-02-20T01:33:24.537Z,15.80
2019-02-20T01:35:52.488Z,15.93
2019-02-20T01:38:20.652Z,14.90
2019-02-20T01:40:48.547Z,14.60
2019-02-20T01:43:16.475Z,14.73
2019-02-20T01:45:44.359Z,15.40
2019-02-20T01:48:12.253Z,15.40
2019-02-20T01:50:40.186Z,16.43
2019-02-20T01:53:10.586Z,15.50
2019-02-20T01:55:37.926Z,15.13
2019-02-20T01:58:06.042Z,16.60
2019-02-20T02:00:33.943Z,15.80
2019-02-20T02:03:01.883Z,16.27
2019-02-20T02:05:29.897Z,15.07
2019-02-20T02:07:58.010Z,15.67
2019-02-20T02:10:25.927Z,14.83
2019-02-20T02:12:53.984Z,16.20
2019-02-20T02:15:22.262Z,16.47
2019-02-20T02:17:50.430Z,16.67
2019-02-20T02:20:18.520Z,16.87
2019-02-20T02:22:46.414Z,15.97
2019-02-20T02:25:14.344Z,16.30
2019-02-20T02:27:42.223Z,15.93
2019-02-20T02:30:11.036Z,15.67
2019-02-20T02:32:38.871Z,15.90
2019-02-20T02:35:06.956Z,15.30
2019-02-20T02:37:35.096Z,14.13
2019-02-20T02:40:03.207Z,14.77
2019-02-20T02:42:31.069Z,14.40
2019-02-20T02:44:59.222Z,13.43
2019-02-20T02:47:27.329Z,12.93
2019-02-20T02:49:55.695Z,12.70
2019-02-20T02:52:23.801Z,12.63
2019-02-20T02:54:51.786Z,12.00
2019-02-20T02:57:19.781Z,11.63
2019-02-20T02:59:47.760Z,11.37
2019-02-20T03:02:15.739Z,11.67
2019-02-20T03:04:43.647Z,11.80
2019-02-20T03:07:11.785Z,10.83
2019-02-20T03:09:39.848Z,10.60
2019-02-20T03:12:07.818Z,10.80
2019-02-20T03:14:35.760Z,11.33
2019-02-20T03:17:03.800Z,11.70
2019-02-20T03:19:31.802Z,10.60
2019-02-20T03:21:59.766Z,11.83
2019-02-20T03:24:27.918Z,12.10
2019-02-20T03:26:55.848Z,11.10
2019-02-20T03:29:23.817Z,10.00
2019-02-20T03:31:51.972Z,11.60
2019-02-20T03:34:20.087Z,9.93
2019-02-20T03:36:48.073Z,9.50
2019-02-20T03:39:16.061Z,10.40
2019-02-20T03:41:43.997Z,11.57
2019-02-20T03:44:12.013Z,12.07
2019-02-20T03:46:40.074Z,11.70
2019-02-20T03:49:08.088Z,11.70
2019-02-20T03:51:36.228Z,12.00
2019-02-20T03:54:04.191Z,11.47
2019-02-20T03:56:32.452Z,10.90
2019-02-20T03:59:00.335Z,11.33
2019-02-20T04:01:28.288Z,11.10
2019-02-20T04:03:56.225Z,11.27
2019-02-20T04:06:24.148Z,11.30
2019-02-20T04:08:52.106Z,11.10
2019-02-20T04:11:20.070Z,10.83
2019-02-20T04:13:47.959Z,10.37
2019-02-20T04:16:16.001Z,11.07
2019-02-20T04:18:43.913Z,10.83
2019-02-20T04:21:11.796Z,10.37
2019-02-20T04:23:39.729Z,9.60
2019-02-20T04:26:09.855Z,11.37
2019-02-20T04:28:37.570Z,11.20
2019-02-20T04:31:05.479Z,10.23
2019-02-20T04:33:33.582Z,10.17
2019-02-20T04:36:01.608Z,11.20
2019-02-20T04:38:29.601Z,10.33
2019-02-20T04:40:57.450Z,9.47
2019-02-20T04:43:25.441Z,10.63
2019-02-20T04:45:53.279Z,9.93
2019-02-20T04:48:21.774Z,10.40
2019-02-20T04:50:49.637Z,10.17
2019-02-20T04:53:17.596Z,11.00
2019-02-20T04:55:45.687Z,11.10
2019-02-20T04:58:14.510Z,11.90
2019-02-20T05:00:42.498Z,12.73
2019-02-20T05:03:10.379Z,12.30
2019-02-20T05:05:38.475Z,13.57
2019-02-20T05:08:06.512Z,11.50
2019-02-20T05:10:34.466Z,11.20
2019-02-20T05:13:02.527Z,11.10
2019-02-20T05:15:30.454Z,12.60
2019-02-20T05:17:58.338Z,11.70
2019-02-20T05:20:26.341Z,10.63
2019-02-20T05:22:54.247Z,12.20
2019-02-20T05:25:22.176Z,12.17
2019-02-20T05:27:50.093Z,12.10
2019-02-20T05:30:18.037Z,11.13
2019-02-20T05:32:45.939Z,12.57
2019-02-20T05:35:13.864Z,13.87
2019-02-20T05:37:41.862Z,11.60
2019-02-20T05:40:09.832Z,13.23
2019-02-20T05:42:37.963Z,12.83
2019-02-20T05:45:06.159Z,12.00
2019-02-20T05:47:34.396Z,11.50
2019-02-20T05:50:02.360Z,11.60
2019-02-20T05:52:30.624Z,11.80
2019-02-20T05:54:58.647Z,12.10
2019-02-20T05:57:26.501Z,12.57
2019-02-20T05:59:54.513Z,12.60
2019-02-20T06:02:22.413Z,11.80
2019-02-20T06:04:50.322Z,12.10
2019-02-20T06:07:18.460Z,12.10
2019-02-20T06:09:46.523Z,12.40
2019-02-20T06:12:14.653Z,12.17
2019-02-20T06:14:43.698Z,11.80
2019-02-20T06:17:11.948Z,14.40
2019-02-20T06:19:39.962Z,13.20
2019-02-20T06:22:07.923Z,14.57
2019-02-20T06:24:43.950Z,15.67
2019-02-20T06:27:07.885Z,14.67
2019-02-20T06:29:35.295Z,15.03
2019-02-20T06:32:03.491Z,16.30
2019-02-20T06:34:31.756Z,15.43
2019-02-20T06:36:59.738Z,15.30
2019-02-20T06:39:27.727Z,13.67
2019-02-20T06:41:55.744Z,14.67
2019-02-20T06:44:23.810Z,14.40
2019-02-20T06:46:51.800Z,14.70
2019-02-20T06:49:19.947Z,14.73
2019-02-20T06:51:47.971Z,18.27
2019-02-20T06:54:16.091Z,17.10
2019-02-20T06:56:44.422Z,17.13
2019-02-20T06:59:12.410Z,16.90
2019-02-20T07:01:40.413Z,18.00
2019-02-20T07:04:08.586Z,18.33
2019-02-20T07:06:45.418Z,15.83
2019-02-20T07:09:35.695Z,16.87
2019-02-20T07:12:18.416Z,17.20
2019-02-20T07:15:14.488Z,15.33
2019-02-20T07:18:04.335Z,17.03
2019-02-20T07:20:50.159Z,16.20
2019-02-20T07:23:33.959Z,15.07
2019-02-20T07:26:12.833Z,15.20
2019-02-20T07:29:06.199Z,16.07
2019-02-20T07:31:34.071Z,15.10
2019-02-20T07:34:02.015Z,14.50
2019-02-20T07:36:30.020Z,15.03
2019-02-20T07:38:57.984Z,14.90
2019-02-20T07:41:26.218Z,14.10
2019-02-20T07:43:54.140Z,13.20
2019-02-20T07:46:22.039Z,13.80
2019-02-20T07:48:49.933Z,13.87
2019-02-20T07:51:18.131Z,12.70
2019-02-20T07:53:46.207Z,13.17
2019-02-20T07:56:14.288Z,13.13
2019-02-20T07:58:42.487Z,12.03
2019-02-20T08:01:10.535Z,11.67
2019-02-20T08:03:38.605Z,12.30
2019-02-20T08:06:06.626Z,11.70
2019-02-20T08:08:34.520Z,11.90
2019-02-20T08:11:02.423Z,11.63
2019-02-20T08:13:38.903Z,10.97
2019-02-20T08:16:00.040Z,10.97
2019-02-20T08:18:28.101Z,10.50
2019-02-20T08:20:56.119Z,10.23
2019-02-20T08:23:24.108Z,10.00
2019-02-20T08:25:53.867Z,10.33
2019-02-20T08:28:21.841Z,10.60
2019-02-20T08:30:49.863Z,11.30
2019-02-20T08:33:17.746Z,10.23
2019-02-20T08:35:45.704Z,10.90
2019-02-20T08:38:13.666Z,11.50
2019-02-20T08:40:41.722Z,11.20
2019-02-20T08:43:09.783Z,11.30
2019-02-20T08:45:37.734Z,11.13
2019-02-20T08:48:05.617Z,11.37
2019-02-20T08:50:33.574Z,10.33
2019-02-20T08:53:01.474Z,11.70
2019-02-20T08:55:31.904Z,12.63
2019-02-20T08:57:59.130Z,11.07
2019-02-20T09:00:27.044Z,10.80
2019-02-20T09:02:55.364Z,10.23
2019-02-20T09:05:23.539Z,9.80
2019-02-20T09:07:51.395Z,9.00
2019-02-20T09:10:19.538Z,8.77
2019-02-20T09:12:47.513Z,8.97
2019-02-20T09:15:15.583Z,9.10
2019-02-20T09:17:43.646Z,9.60
2019-02-20T09:20:11.942Z,9.13
2019-02-20T09:22:39.971Z,9.33
2019-02-20T09:25:08.715Z,8.53
2019-02-20T09:27:36.720Z,9.77
2019-02-20T09:30:05.107Z,9.63
2019-02-20T09:32:33.022Z,9.60
2019-02-20T09:35:01.071Z,9.37
2019-02-20T09:37:29.083Z,9.20
2019-02-20T09:39:57.087Z,10.13
2019-02-20T09:42:25.250Z,9.47
2019-02-20T09:44:53.242Z,10.40
2019-02-20T09:47:21.223Z,9.53
2019-02-20T09:49:49.343Z,10.73
2019-02-20T09:52:17.365Z,10.87
2019-02-20T09:54:45.439Z,11.23
2019-02-20T09:57:13.411Z,12.17
2019-02-20T09:59:41.469Z,11.60
2019-02-20T10:02:09.522Z,12.60
2019-02-20T10:04:37.438Z,12.73
2019-02-20T10:07:05.641Z,11.33
2019-02-20T10:09:33.735Z,11.87
2019-02-20T10:12:01.931Z,12.43
2019-02-20T10:14:29.922Z,11.40
2019-02-20T10:16:58.107Z,12.10
2019-02-20T10:19:26.137Z,12.03
2019-02-20T10:21:54.213Z,12.93
2019-02-20T10:24:22.213Z,13.97
2019-02-20T10:26:50.215Z,13.60
2019-02-20T10:29:18.266Z,14.40
2019-02-20T10:31:46.273Z,18.57
2019-02-20T10:34:14.205Z,17.80
2019-02-20T10:36:42.267Z,16.87
2019-02-20T10:39:10.411Z,16.67
2019-02-20T10:41:38.723Z,16.73
2019-02-20T10:44:06.730Z,16.43
2019-02-20T10:46:34.585Z,15.20
2019-02-20T10:49:11.528Z,15.47
2019-02-20T10:51:39.413Z,14.00
2019-02-20T10:54:07.334Z,15.50
2019-02-20T10:56:35.219Z,16.20
2019-02-20T10:59:03.145Z,16.40
2019-02-20T11:01:31.125Z,17.50
2019-02-20T11:03:59.023Z,16.30
2019-02-20T11:06:26.889Z,18.10
2019-02-20T11:08:55.015Z,17.33
2019-02-20T11:11:22.875Z,15.97
2019-02-20T11:13:50.796Z,18.97
2019-02-20T11:16:18.696Z,14.80
2019-02-20T11:18:46.649Z,16.67
2019-02-20T11:21:14.506Z,16.50
2019-02-20T11:23:42.427Z,18.40
2019-02-20T11:26:17.816Z,19.00
2019-02-20T11:28:40.234Z,17.73
2019-02-20T11:31:08.105Z,17.77
2019-02-20T11:33:36.045Z,18.07
2019-02-20T11:36:03.933Z,16.00
2019-02-20T11:38:31.883Z,15.90
2019-02-20T11:40:59.774Z,17.20
2019-02-20T11:43:27.706Z,15.77
2019-02-20T11:45:55.676Z,16.60
2019-02-20T11:48:23.656Z,15.17
2019-02-20T11:50:51.714Z,16.70
2019-02-20T11:53:22.098Z,19.43
2019-02-20T11:55:49.850Z,19.13
2019-02-20T11:58:17.709Z,18.20
2019-02-20T12:00:45.582Z,18.27
2019-02-20T12:03:13.522Z,18.20
2019-02-20T12:05:43.326Z,19.90
2019-02-20T12:08:11.893Z,19.87
2019-02-20T12:10:40.128Z,18.53
2019-02-20T12:13:08.160Z,21.70
2019-02-20T12:15:36.171Z,19.83
2019-02-20T12:18:04.181Z,21.87
2019-02-20T12:20:32.308Z,21.47
2019-02-20T12:23:00.439Z,18.80
2019-02-20T12:25:28.755Z,18.77
2019-02-20T12:27:56.690Z,18.70
2019-02-20T12:30:24.741Z,17.37
2019-02-20T12:32:52.797Z,15.63
2019-02-20T12:35:20.914Z,16.77
2019-02-20T12:37:49.063Z,15.73
2019-02-20T12:40:17.022Z,15.23
2019-02-20T12:42:45.014Z,14.63
2019-02-20T12:45:12.989Z,15.57
2019-02-20T12:47:40.926Z,10.40
2019-02-20T12:50:08.999Z,10.13
2019-02-20T12:52:37.012Z,10.30
2019-02-20T12:55:05.375Z,11.00
2019-02-20T12:57:33.413Z,8.93
2019-02-20T13:00:01.498Z,8.63
2019-02-20T13:02:29.466Z,8.47
2019-02-20T13:04:57.521Z,8.73
2019-02-20T13:07:25.439Z,8.50
2019-02-20T13:09:53.503Z,8.40
2019-02-20T13:12:21.439Z,8.13
2019-02-20T13:14:49.385Z,8.30
2019-02-20T13:17:17.611Z,7.77
2019-02-20T13:19:45.483Z,7.37
2019-02-20T13:22:13.501Z,8.23
2019-02-20T13:24:41.461Z,8.17
2019-02-20T13:27:10.255Z,9.47
2019-02-20T13:29:38.740Z,9.93
2019-02-20T13:32:06.836Z,11.83
2019-02-20T13:34:34.955Z,12.53
2019-02-20T13:37:03.072Z,12.33
2019-02-20T13:39:31.576Z,13.27
2019-02-20T13:41:59.623Z,11.93
2019-02-20T13:44:27.695Z,11.53
2019-02-20T13:46:56.312Z,11.40
2019-02-20T13:49:24.395Z,10.87
2019-02-20T13:51:52.327Z,9.40
2019-02-20T13:54:20.328Z,9.07
2019-02-20T13:56:48.321Z,8.60
2019-02-20T13:59:16.208Z,9.27
2019-02-20T14:01:45.620Z,8.53
2019-02-20T14:04:13.970Z,8.20
2019-02-20T14:06:41.963Z,8.43
2019-02-20T14:09:09.980Z,7.80
2019-02-20T14:11:38.029Z,9.13
2019-02-20T14:14:06.082Z,8.40
2019-02-20T14:16:34.052Z,7.87
2019-02-20T14:19:02.019Z,7.90
2019-02-20T14:21:30.385Z,8.13
2019-02-20T14:23:58.361Z,7.77
2019-02-20T14:26:26.230Z,7.67
2019-02-20T14:28:54.227Z,8.00
2019-02-20T14:31:22.357Z,8.10
2019-02-20T14:33:50.230Z,7.40
2019-02-20T14:36:18.156Z,7.80
2019-02-20T14:38:46.673Z,9.00
2019-02-20T14:41:14.627Z,8.20
2019-02-20T14:43:42.573Z,7.60
2019-02-20T14:46:10.491Z,7.80
2019-02-20T14:48:38.400Z,8.50
2019-02-20T14:51:06.470Z,8.33
2019-02-20T14:53:34.440Z,7.87
2019-02-20T14:56:02.857Z,8.40
2019-02-20T14:58:30.865Z,8.13
2019-02-20T15:00:58.767Z,8.30
2019-02-20T15:03:26.774Z,8.27
2019-02-20T15:05:54.724Z,8.23
2019-02-20T15:08:22.880Z,7.43
2019-02-20T15:10:50.840Z,7.70
2019-02-20T15:13:19.102Z,7.23
2019-02-20T15:15:47.488Z,7.93
2019-02-20T15:18:15.519Z,8.50
2019-02-20T15:20:43.539Z,7.83
2019-02-20T15:23:11.693Z,8.07
2019-02-20T15:25:39.636Z,7.80
2019-02-20T15:28:07.794Z,8.17
2019-02-20T15:30:36.043Z,8.00
2019-02-20T15:33:04.551Z,8.07
2019-02-20T15:35:32.454Z,8.20
2019-02-20T15:38:00.374Z,8.50
2019-02-20T15:40:28.396Z,7.53
2019-02-20T15:42:56.367Z,8.43
2019-02-20T15:45:24.218Z,8.90
2019-02-20T15:47:52.455Z,7.20
2019-02-20T15:50:20.357Z,7.80
2019-02-20T15:52:48.400Z,8.27
2019-02-20T15:55:16.347Z,8.30
2019-02-20T15:57:44.278Z,8.73
2019-02-20T16:00:12.852Z,8.83
2019-02-20T16:02:40.842Z,8.67
2019-02-20T16:05:09.007Z,9.13
2019-02-20T16:07:36.912Z,9.43
2019-02-20T16:10:06.931Z,9.40
2019-02-20T16:12:34.951Z,8.70
2019-02-20T16:15:02.762Z,8.50
2019-02-20T16:17:30.738Z,8.03
2019-02-20T16:19:58.790Z,8.23
2019-02-20T16:22:26.761Z,8.30
2019-02-20T16:24:54.767Z,9.30
2019-02-20T16:27:22.717Z,8.90
2019-02-20T16:29:50.755Z,8.20
2019-02-20T16:32:18.716Z,9.30
2019-02-20T16:34:46.640Z,8.83
2019-02-20T16:37:14.573Z,8.60
2019-02-20T16:39:42.430Z,8.60
2019-02-20T16:42:10.688Z,8.87
2019-02-20T16:44:38.694Z,9.30
2019-02-20T16:47:06.601Z,9.30
2019-02-20T16:49:34.615Z,8.63
2019-02-20T16:52:02.583Z,8.93
2019-02-20T16:54:30.658Z,9.30
2019-02-20T16:56:58.809Z,8.93
2019-02-20T16:59:27.067Z,8.67
2019-02-20T17:01:54.969Z,8.70
2019-02-20T17:04:23.382Z,9.13
2019-02-20T17:06:51.498Z,9.70
2019-02-20T17:09:19.521Z,9.80
2019-02-20T17:11:47.499Z,9.80
2019-02-20T17:14:15.411Z,11.00
2019-02-20T17:16:44.279Z,9.40
2019-02-20T17:19:12.234Z,9.43
2019-02-20T17:21:40.265Z,9.30
2019-02-20T17:24:08.247Z,10.30
2019-02-20T17:26:36.348Z,9.97
2019-02-20T17:29:04.286Z,10.63
2019-02-20T17:31:32.313Z,11.97
2019-02-20T17:34:00.272Z,11.07
2019-02-20T17:36:28.326Z,11.27
2019-02-20T17:38:56.189Z,10.30
2019-02-20T17:41:24.314Z,10.40
2019-02-20T17:43:55.636Z,11.57
2019-02-20T17:46:23.801Z,11.13
2019-02-20T17:48:52.075Z,11.60
2019-02-20T17:51:20.058Z,11.37
2019-02-20T17:53:48.506Z,12.17
2019-02-20T17:56:16.573Z,11.10
2019-02-20T17:58:44.466Z,10.53
2019-02-20T18:01:16.763Z,10.10
2019-02-20T18:03:44.688Z,9.13
2019-02-20T18:06:13.585Z,10.57
2019-02-20T18:08:41.570Z,10.60
2019-02-20T18:11:09.496Z,9.80
2019-02-20T18:13:37.366Z,10.07
2019-02-20T18:16:05.307Z,10.40
2019-02-20T18:18:33.220Z,9.40
2019-02-20T18:21:01.178Z,10.00
2019-02-20T18:23:29.160Z,10.47
2019-02-20T18:25:57.057Z,11.87
2019-02-20T18:28:25.066Z,11.07
2019-02-20T18:30:52.978Z,10.57
2019-02-20T18:33:20.970Z,11.37
2019-02-20T18:35:48.974Z,12.47
2019-02-20T18:38:16.875Z,13.27
2019-02-20T18:40:45.021Z,12.47
2019-02-20T18:43:12.956Z,12.93
2019-02-20T18:45:41.516Z,12.70
2019-02-20T18:48:09.496Z,12.83
2019-02-20T18:50:37.405Z,14.23
2019-02-20T18:53:05.287Z,12.93
2019-02-20T18:55:33.165Z,14.00
2019-02-20T18:58:01.083Z,13.53
2019-02-20T19:00:29.118Z,12.73
2019-02-20T19:02:57.121Z,12.60
2019-02-20T19:05:25.134Z,13.37
2019-02-20T19:07:53.113Z,13.10
2019-02-20T19:10:40.175Z,12.93
2019-02-20T19:13:33.443Z,13.20
2019-02-20T19:16:23.960Z,15.23
2019-02-20T19:19:20.280Z,14.20
2019-02-20T19:22:07.314Z,15.40
2019-02-20T19:24:53.331Z,15.00
2019-02-20T19:27:30.690Z,15.60
2019-02-20T19:30:17.648Z,17.30
2019-02-20T19:33:07.721Z,19.33
2019-02-20T19:35:58.527Z,20.03
2019-02-20T19:38:44.723Z,18.20
2019-02-20T19:41:23.542Z,18.07
2019-02-20T19:44:08.293Z,16.83
2019-02-20T19:46:55.340Z,16.40
2019-02-20T19:49:30.404Z,16.70
2019-02-20T19:52:26.285Z,18.30
2019-02-20T19:55:04.257Z,17.47
2019-02-20T19:57:37.600Z,15.73
2019-02-20T20:00:22.281Z,15.80
2019-02-20T20:02:52.919Z,15.97
2019-02-20T20:05:49.254Z,16.77
2019-02-20T20:08:40.330Z,14.70
2019-02-20T20:11:15.038Z,13.70
2019-02-20T20:14:02.039Z,14.60
2019-02-20T20:16:51.453Z,14.90
2019-02-20T20:19:28.211Z,13.73
2019-02-20T20:22:09.111Z,13.70
2019-02-20T20:24:41.084Z,15.43
2019-02-20T20:27:28.110Z,14.33
2019-02-20T20:30:12.226Z,13.77
2019-02-20T20:33:08.448Z,13.90
2019-02-20T20:35:55.822Z,15.57
2019-02-20T20:38:40.430Z,13.70
2019-02-20T20:41:15.272Z,13.07
2019-02-20T20:44:00.861Z,14.47
2019-02-20T20:46:55.684Z,14.47
2019-02-20T20:50:03.520Z,12.97
2019-02-20T20:52:49.303Z,15.03
2019-02-20T20:55:34.915Z,14.37
2019-02-20T20:58:28.224Z,13.83
2019-02-20T21:01:27.523Z,12.90
2019-02-20T21:04:26.602Z,14.57
2019-02-20T21:07:25.922Z,12.90
2019-02-20T21:10:11.496Z,13.87
2019-02-20T21:12:45.060Z,14.57
2019-02-20T21:15:30.757Z,14.70
2019-02-20T21:18:27.036Z,15.07
2019-02-20T21:21:23.337Z,14.70
2019-02-20T21:23:58.598Z,16.23
2019-02-20T21:26:43.643Z,17.33
2019-02-20T21:29:14.575Z,15.50
2019-02-20T21:32:03.179Z,15.10
2019-02-20T21:34:36.942Z,14.83
2019-02-20T21:37:19.462Z,15.00
2019-02-20T21:40:09.482Z,14.70
2019-02-20T21:42:44.004Z,13.57
2019-02-20T21:45:43.323Z,14.40
2019-02-20T21:48:20.844Z,15.80
2019-02-20T21:50:57.215Z,14.07
2019-02-20T21:53:47.305Z,14.17
2019-02-20T21:56:29.919Z,14.33
2019-02-20T21:59:23.019Z,14.50
2019-02-20T22:01:55.236Z,16.30
2019-02-20T22:04:57.372Z,14.23
2019-02-20T22:07:57.765Z,14.43
2019-02-20T22:11:00.014Z,14.80
2019-02-20T22:13:39.576Z,16.40
2019-02-20T22:16:35.874Z,15.60
2019-02-20T22:19:25.820Z,14.77
2019-02-20T22:22:09.948Z,16.33
2019-02-20T22:24:58.473Z,15.47
2019-02-20T22:27:32.819Z,15.27
2019-02-20T22:30:22.701Z,16.40
2019-02-20T22:33:19.160Z,15.30
2019-02-20T22:36:12.147Z,15.27
2019-02-20T22:38:55.990Z,15.33
2019-02-20T22:41:31.310Z,15.77
2019-02-20T22:44:30.836Z,15.23
2019-02-20T22:47:17.878Z,14.97
2019-02-20T22:50:14.790Z,14.97
2019-02-20T22:53:01.921Z,15.20
2019-02-20T22:55:47.729Z,15.23
2019-02-20T22:58:28.283Z,15.93
2019-02-20T23:01:07.636Z,14.90
2019-02-20T23:03:44.998Z,15.47
2019-02-20T23:06:31.202Z,16.80
2019-02-20T23:09:18.178Z,16.40
2019-02-20T23:11:52.815Z,15.97
2019-02-20T23:14:30.575Z,16.03
2019-02-20T23:16:58.608Z,15.93
2019-02-20T23:19:26.484Z,14.90
2019-02-20T23:21:54.416Z,15.60
2019-02-20T23:24:22.255Z,15.63
2019-02-20T23:26:50.216Z,15.30
2019-02-20T23:29:18.325Z,15.73
2019-02-20T23:31:46.256Z,15.60
2019-02-20T23:34:14.258Z,15.10
2019-02-20T23:36:42.277Z,15.63
2019-02-20T23:39:10.382Z,16.60
2019-02-20T23:41:38.456Z,15.87
2019-02-20T23:44:06.527Z,16.03
2019-02-20T23:46:34.867Z,14.70
2019-02-20T23:49:02.937Z,14.30
2019-02-20T23:51:30.924Z,14.40
2019-02-20T23:53:59.168Z,14.53
2019-02-20T23:56:27.134Z,15.43
2019-02-20T23:58:55.151Z,15.13
